Time;durP1;ratioP1;P1;durP2;ratioP2;P2;SDS_P1;SDS_P2;PMS_P1;PMS_P2;Temp;Humidity;BMP_temperature;BMP_pressure;BME280_temperature;BME280_humidity;BME280_pressure;Samples;Min_cycle;Max_cycle;Signal;HPM_P1;HPM_P2
2022/08/19 00:01:25;;;;;;;4.90;4.40;;;;;;;25.92;47.06;94704.28;5061212;28;20134;-55
2022/08/19 00:03:50;;;;;;;7.97;5.10;;;;;;;25.98;46.75;94695.97;5062256;28;20016;-54
2022/08/19 00:06:16;;;;;;;4.90;4.40;;;;;;;26.02;46.93;94713.50;5061242;28;20023;-56
2022/08/19 00:08:42;;;;;;;6.82;4.60;;;;;;;26.04;46.93;94710.97;5060400;28;20135;-55
2022/08/19 00:11:08;;;;;;;6.25;4.40;;;;;;;25.90;47.27;94706.84;5061161;28;20805;-56
2022/08/19 00:13:33;;;;;;;5.50;4.60;;;;;;;25.22;47.11;94594.53;5043956;28;20040;-54
2022/08/19 00:15:59;;;;;;;7.22;5.18;;;;;;;25.85;47.33;94698.75;5053687;28;20032;-54
2022/08/19 00:18:25;;;;;;;6.18;4.80;;;;;;;25.92;47.40;94709.03;5044530;28;20032;-55
2022/08/19 00:20:51;;;;;;;6.78;4.70;;;;;;;25.84;47.83;94721.88;5059661;28;20044;-55
2022/08/19 00:23:16;;;;;;;8.55;4.93;;;;;;;25.34;48.18;94666.84;5060692;28;20043;-56
2022/08/19 00:25:42;;;;;;;5.50;4.53;;;;;;;25.17;48.47;94641.13;5059539;28;20587;-55
2022/08/19 00:28:07;;;;;;;5.75;4.88;;;;;;;25.82;48.22;94722.41;5054572;28;20041;-55
2022/08/19 00:30:33;;;;;;;5.63;4.97;;;;;;;25.37;48.68;94673.97;5054948;28;20498;-54
2022/08/19 00:32:58;;;;;;;7.30;5.07;;;;;;;25.24;48.64;94652.13;5041614;28;20089;-56
2022/08/19 00:35:24;;;;;;;5.57;4.80;;;;;;;25.65;48.52;94710.41;5035697;28;20036;-54
2022/08/19 00:37:50;;;;;;;5.50;4.60;;;;;;;25.71;48.84;94715.72;5054301;28;21264;-54
2022/08/19 00:40:16;;;;;;;7.07;5.25;;;;;;;25.13;48.34;94646.19;5050211;28;20128;-55
2022/08/19 00:42:41;;;;;;;6.95;4.38;;;;;;;25.72;48.36;94717.22;5059142;28;20029;-55
2022/08/19 00:45:26;;;;;;;6.32;4.80;;;;;;;25.56;48.32;94704.59;5060997;28;20044;-56
2022/08/19 00:47:52;;;;;;;6.50;4.63;;;;;;;25.20;48.40;94651.75;5058127;28;20089;-56
2022/08/19 00:50:20;;;;;;;5.45;4.75;;;;;;;25.61;48.66;94707.22;5060986;28;20140;-55
2022/08/19 00:52:47;;;;;;;5.82;4.95;;;;;;;25.31;48.14;94672.63;5060737;28;20082;-55
2022/08/19 00:55:18;;;;;;;8.38;4.72;;;;;;;25.58;49.09;94707.56;5027124;28;20051;-58
2022/08/19 00:57:48;;;;;;;6.80;4.88;;;;;;;25.56;49.35;94710.06;5060431;28;20032;-54
2022/08/19 01:00:16;;;;;;;6.20;4.60;;;;;;;25.46;49.39;94706.34;5061759;28;20028;-55
2022/08/19 01:02:42;;;;;;;6.65;5.05;;;;;;;24.96;49.31;94627.38;5060226;28;20246;-55
2022/08/19 01:05:13;;;;;;;6.93;5.10;;;;;;;25.47;49.59;94707.78;5043073;28;20205;-55
2022/08/19 01:07:39;;;;;;;6.63;5.00;;;;;;;25.31;49.54;94684.28;5052893;28;20037;-55
2022/08/19 01:10:09;;;;;;;5.78;5.03;;;;;;;25.30;50.37;94704.69;5026108;28;20565;-54
2022/08/19 01:12:35;;;;;;;7.30;5.00;;;;;;;25.07;50.00;94678.34;5014525;28;20318;-55
2022/08/19 01:15:01;;;;;;;6.85;5.38;;;;;;;24.97;50.20;94647.97;5056486;28;20033;-55
2022/08/19 01:17:27;;;;;;;5.78;4.85;;;;;;;25.28;50.04;94695.56;5028063;28;20099;-55
2022/08/19 01:19:52;;;;;;;6.25;5.13;;;;;;;25.10;50.31;94674.56;5054405;28;20083;-55
2022/08/19 01:22:24;;;;;;;5.18;4.68;;;;;;;25.39;50.13;94701.50;5042265;28;20143;-55
2022/08/19 01:24:50;;;;;;;6.95;4.78;;;;;;;25.03;50.04;94658.81;5059635;28;20675;-53
2022/08/19 01:27:16;;;;;;;6.30;4.88;;;;;;;24.94;50.29;94651.75;5058997;28;20031;-53
2022/08/19 01:29:42;;;;;;;6.50;4.78;;;;;;;24.92;50.33;94643.34;5041971;28;20048;-54
2022/08/19 01:32:08;;;;;;;7.13;5.30;;;;;;;25.28;50.32;94711.97;5037283;28;20412;-53
2022/08/19 01:34:34;;;;;;;6.40;4.70;;;;;;;24.48;50.31;94593.63;5060898;28;20044;-56
2022/08/19 01:37:01;;;;;;;6.13;5.13;;;;;;;25.31;50.36;94708.91;5059255;28;20032;-54
2022/08/19 01:39:27;;;;;;;6.10;4.72;;;;;;;24.91;50.02;94646.63;5059133;28;20025;-54
2022/08/19 01:41:54;;;;;;;6.38;4.90;;;;;;;24.56;50.58;94605.38;5059988;28;20029;-53
2022/08/19 01:44:23;;;;;;;7.47;5.03;;;;;;;25.11;50.59;94695.91;5060338;28;20047;-53
2022/08/19 01:46:49;;;;;;;6.57;5.40;;;;;;;25.03;50.41;94686.84;5059672;28;20507;-55
2022/08/19 01:49:15;;;;;;;7.10;5.43;;;;;;;25.08;50.62;94705.16;5059840;28;20286;-54
2022/08/19 01:51:40;;;;;;;6.65;5.10;;;;;;;24.62;49.90;94630.56;5060521;28;20008;-56
2022/08/19 01:54:09;;;;;;;8.05;5.63;;;;;;;25.11;50.27;94701.38;5060454;28;20033;-54
2022/08/19 01:56:35;;;;;;;6.90;5.22;;;;;;;25.10;50.85;94708.09;5059572;28;20044;-54
2022/08/19 01:59:02;;;;;;;6.30;5.20;;;;;;;25.18;50.21;94706.16;5062177;28;20101;-54
2022/08/19 02:01:31;;;;;;;7.65;5.20;;;;;;;24.88;50.27;94677.72;5041082;28;20045;-55
2022/08/19 02:03:58;;;;;;;7.18;5.05;;;;;;;25.01;50.06;94694.13;5063339;28;20196;-55
2022/08/19 02:06:23;;;;;;;7.20;5.60;;;;;;;24.71;50.47;94660.19;5062096;28;20028;-55
2022/08/19 02:08:49;;;;;;;7.20;5.40;;;;;;;24.68;50.81;94667.44;5062840;28;20067;-54
2022/08/19 02:11:23;;;;;;;6.50;5.45;;;;;;;24.87;50.72;94690.66;5063124;28;20044;-54
2022/08/19 02:13:49;;;;;;;7.55;5.90;;;;;;;24.92;50.68;94698.00;5053252;28;20062;-55
2022/08/19 02:16:16;;;;;;;7.03;5.50;;;;;;;24.92;50.98;94687.06;5045253;28;20043;-54
2022/08/19 02:18:42;;;;;;;6.65;5.65;;;;;;;24.94;51.31;94711.84;5063116;28;20494;-54
2022/08/19 02:21:07;;;;;;;7.38;5.90;;;;;;;24.93;50.94;94713.13;5062659;28;20059;-56
2022/08/19 02:23:33;;;;;;;8.13;5.70;;;;;;;24.96;50.68;94736.66;5040236;28;20033;-54
2022/08/19 02:25:58;;;;;;;8.25;5.97;;;;;;;24.80;50.86;94695.25;5062377;28;20123;-54
2022/08/19 02:28:24;;;;;;;7.90;6.00;;;;;;;24.87;51.03;94704.31;5068329;28;20253;-54
2022/08/19 02:30:49;;;;;;;6.30;5.63;;;;;;;24.24;50.70;94626.56;5057780;28;20048;-55
2022/08/19 02:33:15;;;;;;;5.85;5.20;;;;;;;24.72;50.91;94683.50;5063185;28;20033;-53
2022/08/19 02:35:43;;;;;;;6.93;5.22;;;;;;;24.52;50.77;94648.66;5063988;28;20570;-54
2022/08/19 02:38:26;;;;;;;7.60;5.72;;;;;;;24.90;50.70;94708.72;5060429;28;20052;-55
2022/08/19 02:40:56;;;;;;;6.90;5.85;;;;;;;24.89;50.62;94720.91;5063108;28;20048;-53
2022/08/19 02:43:22;;;;;;;6.57;5.60;;;;;;;24.78;50.19;94692.31;5044697;28;20044;-54
2022/08/19 02:45:48;;;;;;;6.60;5.50;;;;;;;24.84;50.65;94713.56;5044293;28;20029;-53
2022/08/19 02:48:17;;;;;;;8.10;6.13;;;;;;;24.72;50.94;94710.81;5062640;28;20032;-54
2022/08/19 02:50:42;;;;;;;6.40;5.70;;;;;;;24.77;50.76;94707.22;5028607;28;20040;-55
2022/08/19 02:53:08;;;;;;;6.53;5.30;;;;;;;24.79;51.05;94710.19;5027604;28;20078;-56
2022/08/19 02:55:33;;;;;;;6.15;5.45;;;;;;;24.54;51.22;94695.25;5057609;28;20574;-55
2022/08/19 02:57:59;;;;;;;6.60;5.60;;;;;;;24.63;51.27;94719.41;5043777;28;20031;-53
2022/08/19 03:00:26;;;;;;;6.72;5.60;;;;;;;24.23;51.52;94670.72;5056532;28;20028;-54
2022/08/19 03:02:51;;;;;;;8.27;5.50;;;;;;;24.25;51.06;94630.75;5049021;28;20029;-53
2022/08/19 03:05:17;;;;;;;8.30;5.28;;;;;;;24.28;51.43;94651.53;5048317;28;20102;-54
2022/08/19 03:07:43;;;;;;;6.88;5.85;;;;;;;24.71;51.80;94742.09;5058008;28;20047;-52
2022/08/19 03:10:08;;;;;;;7.43;6.00;;;;;;;24.25;51.37;94652.59;5062899;28;20041;-56
2022/08/19 03:12:37;;;;;;;8.55;5.85;;;;;;;24.03;51.87;94631.16;5059826;28;20128;-52
2022/08/19 03:15:05;;;;;;;6.83;5.43;;;;;;;24.56;51.88;94714.59;5060784;28;20528;-54
2022/08/19 03:17:30;;;;;;;6.70;5.47;;;;;;;24.14;51.69;94655.53;5052331;28;20284;-54
2022/08/19 03:19:56;;;;;;;7.63;5.65;;;;;;;24.21;51.61;94657.63;5056234;28;20440;-54
2022/08/19 03:22:21;;;;;;;7.15;5.72;;;;;;;24.60;52.03;94715.00;5061298;28;20043;-54
2022/08/19 03:24:47;;;;;;;9.05;6.18;;;;;;;24.46;51.91;94699.88;5057743;28;20005;-54
2022/08/19 03:27:13;;;;;;;8.65;5.72;;;;;;;24.10;51.90;94652.34;5060010;28;20035;-57
2022/08/19 03:29:39;;;;;;;6.30;5.30;;;;;;;23.93;52.20;94621.91;5057338;28;20068;-53
2022/08/19 03:32:05;;;;;;;6.95;5.35;;;;;;;24.54;52.38;94719.81;5023921;28;20037;-54
2022/08/19 03:34:31;;;;;;;5.68;5.00;;;;;;;24.28;52.16;94689.75;5062788;28;20041;-56
2022/08/19 03:36:58;;;;;;;7.03;5.38;;;;;;;24.16;51.66;94663.19;5059038;28;20499;-54
2022/08/19 03:39:24;;;;;;;7.43;6.05;;;;;;;24.48;52.31;94727.38;5059932;28;20897;-54
2022/08/19 03:41:50;;;;;;;6.78;5.68;;;;;;;24.47;52.15;94717.75;5043460;28;21094;-54
2022/08/19 03:44:18;;;;;;;6.78;5.10;;;;;;;24.18;52.02;94696.84;5061260;28;20083;-55
2022/08/19 03:46:43;;;;;;;6.43;5.68;;;;;;;24.13;52.01;94694.97;5060571;28;20044;-54
2022/08/19 03:49:08;;;;;;;7.82;5.60;;;;;;;24.32;52.16;94722.94;5061668;28;20750;-53
2022/08/19 03:51:36;;;;;;;6.30;5.45;;;;;;;24.21;52.51;94723.09;5056069;28;20039;-54
2022/08/19 03:54:04;;;;;;;8.55;5.80;;;;;;;24.40;52.52;94745.66;5039092;28;20090;-55
2022/08/19 03:56:29;;;;;;;6.03;5.40;;;;;;;24.33;52.35;94729.88;5058633;28;20037;-55
2022/08/19 03:58:56;;;;;;;7.28;5.60;;;;;;;24.33;51.60;94718.97;5062396;28;20893;-55
2022/08/19 04:01:24;;;;;;;6.72;5.57;;;;;;;23.67;51.38;94620.38;5060855;28;20037;-55
2022/08/19 04:03:49;;;;;;;6.13;5.18;;;;;;;24.11;51.44;94700.22;5060771;28;20043;-54
2022/08/19 04:06:26;;;;;;;6.03;5.43;;;;;;;24.49;51.90;94764.34;5060563;28;20033;-55
2022/08/19 04:08:55;;;;;;;7.07;5.55;;;;;;;24.40;51.68;94756.56;5043576;28;20039;-54
2022/08/19 04:11:23;;;;;;;7.57;5.65;;;;;;;24.33;51.91;94745.53;5060324;28;20036;-55
2022/08/19 04:13:50;;;;;;;8.75;5.90;;;;;;;24.50;51.47;94765.84;5058593;28;20033;-53
2022/08/19 04:16:17;;;;;;;6.32;5.60;;;;;;;24.16;51.42;94699.38;5060419;28;20040;-54
2022/08/19 04:18:42;;;;;;;9.10;5.82;;;;;;;24.50;51.88;94750.19;5061686;28;20020;-56
2022/08/19 04:21:08;;;;;;;7.70;5.25;;;;;;;23.89;52.42;94681.47;5053872;28;20561;-54
2022/08/19 04:23:35;;;;;;;6.78;5.68;;;;;;;23.85;52.07;94676.84;5050311;28;20423;-55
2022/08/19 04:26:01;;;;;;;8.00;5.53;;;;;;;23.61;52.08;94642.25;5046717;28;20631;-53
2022/08/19 04:28:27;;;;;;;6.43;5.53;;;;;;;24.45;52.41;94763.91;5038396;28;20048;-55
2022/08/19 04:30:53;;;;;;;7.88;5.68;;;;;;;24.51;52.23;94770.78;5045854;28;20029;-55
2022/08/19 04:33:22;;;;;;;8.77;5.63;;;;;;;24.09;51.76;94689.06;5027440;28;20039;-54
2022/08/19 04:35:48;;;;;;;6.45;5.60;;;;;;;24.51;52.48;94767.28;5046273;28;20124;-53
2022/08/19 04:38:14;;;;;;;8.80;6.03;;;;;;;23.97;52.04;94682.31;5047952;28;20110;-54
2022/08/19 04:43:25;;;;;;;6.97;5.68;;;;;;;24.25;52.45;94707.16;5043679;28;20044;-54
2022/08/19 04:45:51;;;;;;;7.32;5.35;;;;;;;24.58;52.31;94761.22;5046827;28;20032;-55
2022/08/19 04:48:26;;;;;;;6.85;5.40;;;;;;;24.57;52.66;94754.28;5046299;28;20079;-55
2022/08/19 04:50:57;;;;;;;9.30;5.70;;;;;;;24.01;52.67;94677.31;5045445;28;20128;-54
2022/08/19 04:53:26;;;;;;;6.47;5.70;;;;;;;24.54;52.95;94749.84;5048279;28;20025;-55
2022/08/19 04:55:52;;;;;;;8.20;6.30;;;;;;;24.23;53.16;94704.22;5049751;28;20589;-54
2022/08/19 04:58:17;;;;;;;11.05;6.18;;;;;;;24.07;53.08;94686.13;5049698;28;20041;-54
2022/08/19 05:00:43;;;;;;;7.65;6.03;;;;;;;24.49;52.79;94731.59;5061968;28;20025;-56
2022/08/19 05:03:09;;;;;;;7.97;6.22;;;;;;;24.56;52.59;94761.75;5060787;28;20028;-55
2022/08/19 05:05:38;;;;;;;8.60;6.32;;;;;;;24.73;53.55;94772.38;5060741;28;20149;-55
2022/08/19 05:08:04;;;;;;;9.35;6.25;;;;;;;24.75;52.81;94761.66;5054746;28;20036;-55
2022/08/19 05:10:30;;;;;;;9.80;5.80;;;;;;;24.11;52.56;94653.84;5057431;28;20041;-52
2022/08/19 05:12:57;;;;;;;8.90;6.63;;;;;;;24.90;52.38;94768.06;5052438;28;20056;-52
2022/08/19 05:15:22;;;;;;;10.00;6.55;;;;;;;24.87;52.26;94744.53;5053175;28;20403;-52
2022/08/19 05:22:32;;;;;;;10.20;7.45;;;;;;;24.56;51.88;94681.84;5056312;28;20033;-52
2022/08/19 05:23:18;;;;;;;7.65;6.72;;;;;;;24.82;51.58;94682.56;5056320;28;20040;-53
2022/08/19 05:25:44;;;;;;;10.15;6.70;;;;;;;25.23;51.28;94737.38;5056640;28;20179;-53
2022/08/19 05:28:09;;;;;;;9.18;6.40;;;;;;;25.28;51.24;94734.56;5050380;28;20049;-53
2022/08/19 05:30:35;;;;;;;7.40;6.63;;;;;;;25.69;51.13;94770.25;5055765;28;20024;-52
2022/08/19 05:33:00;;;;;;;9.30;6.35;;;;;;;25.03;50.74;94667.72;5059460;28;20040;-54
2022/08/19 05:35:26;;;;;;;9.68;6.38;;;;;;;24.93;50.31;94644.84;5052892;28;20487;-54
2022/08/19 05:37:53;;;;;;;9.82;6.80;;;;;;;25.62;49.87;94735.28;5056022;28;20134;-54
2022/08/19 05:40:19;;;;;;;9.23;6.80;;;;;;;25.99;49.24;94761.09;5054498;28;20497;-55
2022/08/19 05:42:45;;;;;;;8.27;6.75;;;;;;;25.79;48.71;94722.03;5052241;28;20021;-55
2022/08/19 05:45:11;;;;;;;10.10;7.10;;;;;;;25.73;49.04;94729.63;5061962;28;20021;-53
2022/08/19 05:47:37;;;;;;;8.95;6.97;;;;;;;25.38;48.42;94648.09;5063324;28;20044;-54
2022/08/19 05:50:03;;;;;;;10.90;7.15;;;;;;;26.08;48.57;94727.06;5061404;28;20499;-54
2022/08/19 05:52:29;;;;;;;11.15;7.25;;;;;;;26.00;47.99;94705.09;5049435;28;20029;-54
2022/08/19 05:54:55;;;;;;;9.90;7.05;;;;;;;26.58;47.73;94784.84;5042605;28;20032;-55
2022/08/19 05:57:21;;;;;;;9.73;6.72;;;;;;;26.61;48.01;94772.81;5048639;28;20025;-54
2022/08/19 05:59:48;;;;;;;12.13;6.90;;;;;;;26.28;47.36;94741.50;5034278;28;20542;-54
2022/08/19 06:02:13;;;;;;;8.65;6.47;;;;;;;26.77;46.33;94759.44;5048665;28;20512;-54
2022/08/19 06:04:42;;;;;;;10.40;6.38;;;;;;;26.89;46.77;94777.06;5056048;28;20043;-55
2022/08/19 06:07:07;;;;;;;11.48;7.40;;;;;;;26.44;46.08;94706.75;5061592;28;20079;-55
2022/08/19 06:09:33;;;;;;;7.75;6.32;;;;;;;26.89;46.65;94759.88;5063987;28;20029;-53
2022/08/19 06:11:59;;;;;;;9.15;6.13;;;;;;;26.44;46.12;94698.53;5054366;28;20722;-54
2022/08/19 06:14:30;;;;;;;8.02;6.38;;;;;;;26.87;46.18;94740.47;5049673;28;20048;-53
2022/08/19 06:16:56;;;;;;;8.07;6.30;;;;;;;27.14;45.54;94766.44;5035828;28;20123;-53
2022/08/19 06:19:23;;;;;;;7.43;5.85;;;;;;;27.19;46.09;94777.28;5052087;28;20510;-53
2022/08/19 06:21:50;;;;;;;8.63;5.75;;;;;;;26.74;45.61;94682.31;5038589;28;20025;-53
2022/08/19 06:24:18;;;;;;;8.30;6.20;;;;;;;27.37;45.17;94781.75;5060382;28;20510;-53
2022/08/19 06:26:47;;;;;;;7.88;6.38;;;;;;;27.40;44.99;94775.19;5044636;28;20045;-53
2022/08/19 06:29:13;;;;;;;9.57;6.30;;;;;;;27.46;44.47;94773.03;5050318;28;20094;-53
2022/08/19 06:31:42;;;;;;;9.32;6.10;;;;;;;27.37;45.14;94763.28;5056235;28;20052;-52
2022/08/19 06:34:07;;;;;;;7.70;5.80;;;;;;;27.42;45.23;94767.13;5044441;28;20175;-54
2022/08/19 06:36:35;;;;;;;10.18;5.90;;;;;;;27.50;45.10;94789.88;5061693;28;20032;-54
2022/08/19 06:39:11;;;;;;;8.18;6.80;;;;;;;27.51;44.96;94769.41;5035519;28;20041;-55
2022/08/19 06:41:38;;;;;;;7.65;5.45;;;;;;;27.06;45.46;94719.78;5059747;28;20102;-54
2022/08/19 06:44:04;;;;;;;9.45;6.25;;;;;;;27.53;44.92;94783.31;5061322;28;20062;-55
2022/08/19 06:46:30;;;;;;;8.82;6.22;;;;;;;27.13;45.07;94713.63;5058900;28;20558;-55
2022/08/19 06:48:56;;;;;;;9.35;6.25;;;;;;;27.34;44.95;94755.41;5050648;28;20037;-53
2022/08/19 06:51:22;;;;;;;9.63;6.35;;;;;;;26.61;45.40;94666.00;5058271;28;20032;-54
2022/08/19 06:53:48;;;;;;;9.57;5.97;;;;;;;27.52;44.91;94777.09;5046621;28;20148;-53
2022/08/19 06:56:14;;;;;;;7.20;5.88;;;;;;;27.27;45.90;94767.06;5027540;28;20431;-53
2022/08/19 06:58:40;;;;;;;8.90;6.18;;;;;;;27.45;45.15;94772.28;5049440;28;20093;-55
2022/08/19 07:01:05;;;;;;;8.50;6.30;;;;;;;27.61;45.38;94800.53;5052892;28;20040;-54
2022/08/19 07:03:32;;;;;;;8.15;6.75;;;;;;;27.48;45.36;94797.91;5063128;28;20032;-53
2022/08/19 07:06:09;;;;;;;8.18;6.00;;;;;;;27.29;45.49;94753.53;5047565;28;20523;-55
2022/08/19 07:08:42;;;;;;;7.75;6.07;;;;;;;27.56;45.28;94793.19;5040714;28;20138;-54
2022/08/19 07:11:08;;;;;;;8.50;6.35;;;;;;;27.10;45.31;94733.91;5049561;28;20054;-55
2022/08/19 07:13:36;;;;;;;8.48;6.07;;;;;;;27.07;45.49;94732.25;5049898;28;20033;-55
2022/08/19 07:16:08;;;;;;;8.88;6.28;;;;;;;27.44;45.96;94789.25;5030344;28;20029;-55
2022/08/19 07:18:34;;;;;;;10.43;6.10;;;;;;;27.34;46.06;94783.56;5063808;28;20025;-55
2022/08/19 07:21:15;;;;;;;9.48;5.82;;;;;;;26.81;45.91;94712.50;5063475;28;20452;-54
2022/08/19 07:23:41;;;;;;;7.90;6.07;;;;;;;27.23;46.50;94798.84;5058613;28;20033;-56
2022/08/19 07:26:20;;;;;;;8.38;5.80;;;;;;;26.56;46.38;94677.81;5049617;28;20109;-55
2022/08/19 07:28:47;;;;;;;8.40;6.38;;;;;;;26.75;46.10;94716.66;5049716;28;20037;-55
2022/08/19 07:31:13;;;;;;;8.73;5.75;;;;;;;27.32;46.06;94790.84;5046012;28;20048;-55
2022/08/19 07:33:39;;;;;;;7.32;6.00;;;;;;;27.21;46.13;94796.66;5056143;28;20560;-55
2022/08/19 07:36:06;;;;;;;8.35;5.70;;;;;;;26.75;46.60;94711.19;5062955;28;20515;-56
2022/08/19 07:38:32;;;;;;;8.40;5.95;;;;;;;27.14;45.97;94764.41;5059475;28;20116;-56
2022/08/19 07:40:58;;;;;;;8.93;5.80;;;;;;;27.03;46.66;94764.72;5044650;28;20043;-55
2022/08/19 07:43:26;;;;;;;9.00;6.32;;;;;;;27.27;46.46;94789.72;5061513;28;20041;-54
2022/08/19 07:45:53;;;;;;;8.65;6.20;;;;;;;27.27;46.24;94789.00;5055235;28;20483;-55
2022/08/19 07:48:18;;;;;;;7.65;5.82;;;;;;;27.00;46.40;94749.38;5044014;28;20028;-55
2022/08/19 07:50:44;;;;;;;7.50;6.28;;;;;;;27.11;46.46;94768.25;5060430;28;20043;-55
2022/08/19 07:53:11;;;;;;;7.40;5.88;;;;;;;26.48;46.99;94687.97;5040460;28;20446;-56
2022/08/19 07:55:37;;;;;;;9.05;5.65;;;;;;;27.22;46.51;94791.88;5040678;28;20043;-56
2022/08/19 07:58:04;;;;;;;7.55;5.80;;;;;;;27.15;46.53;94782.34;5045918;28;20041;-58
2022/08/19 08:00:30;;;;;;;10.30;6.00;;;;;;;26.89;46.34;94766.13;5048362;28;20120;-55
2022/08/19 08:02:55;;;;;;;7.32;5.45;;;;;;;27.09;47.45;94789.25;5046676;28;20033;-56
2022/08/19 08:10:50;;;;;;;8.45;5.63;;;;;;;27.04;46.24;94755.25;5057112;28;20039;-57
2022/08/19 08:13:16;;;;;;;8.18;5.53;;;;;;;27.08;46.73;94752.88;5049474;28;20036;-57
2022/08/19 08:15:41;;;;;;;6.90;5.40;;;;;;;26.70;46.62;94701.13;5051195;28;20039;-55
2022/08/19 08:18:07;;;;;;;8.13;5.80;;;;;;;27.27;46.62;94778.75;5046596;28;20490;-55
2022/08/19 08:20:32;;;;;;;8.48;5.53;;;;;;;27.22;46.89;94770.69;5047736;28;20086;-56
2022/08/19 08:25:42;;;;;;;7.28;6.38;;;;;;;26.64;46.54;94678.59;5048384;28;20090;-54
2022/08/19 08:28:08;;;;;;;11.32;6.80;;;;;;;27.26;46.99;94760.09;5045297;28;20060;-54
2022/08/19 08:30:35;;;;;;;8.07;6.07;;;;;;;27.24;47.11;94772.91;5045068;28;20020;-55
2022/08/19 08:33:01;;;;;;;7.13;5.95;;;;;;;26.76;47.01;94692.19;5047122;28;20110;-56
2022/08/19 08:35:26;;;;;;;6.22;5.45;;;;;;;26.84;46.48;94709.41;5043683;28;20131;-54
2022/08/19 08:37:53;;;;;;;6.97;5.13;;;;;;;27.27;46.48;94756.09;5041273;28;20519;-55
2022/08/19 08:40:23;;;;;;;7.18;5.80;;;;;;;27.00;46.53;94726.72;5023960;28;20033;-54
2022/08/19 08:43:00;;;;;;;8.27;5.70;;;;;;;27.26;45.99;94776.56;5035779;28;20028;-55
2022/08/19 08:45:25;;;;;;;7.60;5.32;;;;;;;27.16;46.81;94756.41;5018502;28;20021;-54
2022/08/19 08:47:52;;;;;;;6.93;5.50;;;;;;;26.77;46.65;94688.19;5029412;28;20033;-55
2022/08/19 08:50:28;;;;;;;7.07;5.68;;;;;;;27.24;46.79;94745.50;5038264;28;20476;-55
2022/08/19 08:52:55;;;;;;;8.02;5.75;;;;;;;27.32;46.48;94763.44;5042956;28;20408;-54
2022/08/19 08:55:23;;;;;;;6.13;5.25;;;;;;;26.53;46.03;94646.00;5055102;28;20040;-55
2022/08/19 08:57:48;;;;;;;8.73;5.25;;;;;;;27.42;45.61;94756.91;5033461;28;20052;-54
2022/08/19 09:00:26;;;;;;;6.65;5.10;;;;;;;27.37;45.62;94746.09;5058752;28;20037;-54
2022/08/19 09:02:52;;;;;;;6.90;4.97;;;;;;;27.03;45.14;94677.00;5058776;28;20036;-55
2022/08/19 09:05:20;;;;;;;5.95;4.75;;;;;;;27.46;44.95;94740.09;5059128;28;20044;-54
2022/08/19 09:08:07;;;;;;;6.18;5.15;;;;;;;26.97;45.41;94668.22;5042131;28;20039;-53
2022/08/19 09:10:39;;;;;;;6.90;5.40;;;;;;;27.42;44.84;94715.03;5065739;28;20032;-54
2022/08/19 09:13:32;;;;;;;6.80;5.68;;;;;;;27.54;45.04;94740.88;5037614;28;20045;-55
2022/08/19 09:16:10;;;;;;;7.25;4.72;;;;;;;27.39;44.87;94714.09;5059298;28;20558;-55
2022/08/19 09:18:52;;;;;;;7.05;4.50;;;;;;;26.89;44.71;94631.81;5031824;28;20852;-54
2022/08/19 09:21:18;;;;;;;5.65;4.45;;;;;;;27.39;44.87;94702.41;5055802;28;20032;-54
2022/08/19 09:23:43;;;;;;;6.40;4.82;;;;;;;27.26;44.41;94683.31;5045502;28;20060;-54
2022/08/19 09:26:13;;;;;;;7.88;4.43;;;;;;;27.02;44.60;94648.13;5062626;28;20055;-54
2022/08/19 09:28:43;;;;;;;6.68;4.22;;;;;;;27.18;44.65;94666.13;5055781;28;20575;-54
2022/08/19 09:31:15;;;;;;;6.22;4.70;;;;;;;27.48;44.63;94704.63;5024794;28;20488;-53
2022/08/19 09:33:43;;;;;;;5.93;4.93;;;;;;;27.58;43.76;94724.78;5038428;28;20040;-54
2022/08/19 09:36:12;;;;;;;6.32;4.55;;;;;;;27.25;43.51;94665.44;5045261;28;20068;-54
2022/08/19 09:38:41;;;;;;;5.90;4.47;;;;;;;27.60;43.21;94706.50;5032207;28;20500;-55
2022/08/19 09:41:08;;;;;;;6.50;4.18;;;;;;;27.65;43.20;94713.13;5044646;28;20041;-55
2022/08/19 09:43:36;;;;;;;4.78;4.05;;;;;;;26.46;43.35;94553.63;5044282;28;20068;-55
2022/08/19 09:46:06;;;;;;;6.28;4.13;;;;;;;27.59;43.01;94699.56;5044559;28;20112;-54
2022/08/19 09:48:35;;;;;;;5.82;4.32;;;;;;;27.63;43.22;94704.72;5050486;28;20028;-53
2022/08/19 09:51:15;;;;;;;5.93;4.28;;;;;;;27.44;42.90;94671.31;5016424;28;20032;-52
2022/08/19 09:53:41;;;;;;;6.55;3.92;;;;;;;27.07;42.63;94622.59;5039216;28;20033;-53
2022/08/19 09:56:06;;;;;;;5.18;3.70;;;;;;;27.60;42.86;94695.53;5044365;28;20059;-54
2022/08/19 09:58:32;;;;;;;4.88;3.95;;;;;;;27.69;42.54;94713.50;5043380;28;20076;-53
2022/08/19 10:00:59;;;;;;;4.85;3.65;;;;;;;27.73;42.52;94709.84;5044139;28;20036;-54
2022/08/19 10:03:25;;;;;;;4.35;3.85;;;;;;;27.66;41.88;94693.38;5044788;28;20168;-53
2022/08/19 10:05:51;;;;;;;5.13;3.67;;;;;;;27.19;42.41;94622.97;5043476;28;20122;-54
2022/08/19 10:08:21;;;;;;;6.22;3.50;;;;;;;27.45;41.75;94646.09;5035977;28;20583;-54
2022/08/19 10:10:47;;;;;;;4.72;3.28;;;;;;;27.66;42.11;94670.69;5021701;28;20041;-67
2022/08/19 10:13:14;;;;;;;8.27;3.35;;;;;;;27.36;41.17;94626.69;5029364;28;20409;-54
2022/08/19 10:15:40;;;;;;;7.47;4.13;;;;;;;27.79;40.44;94685.72;5041150;28;20033;-55
2022/08/19 10:18:06;;;;;;;7.28;4.00;;;;;;;27.46;41.85;94674.28;5043377;28;20037;-53
2022/08/19 10:20:31;;;;;;;6.10;3.55;;;;;;;27.41;43.14;94683.38;5042117;28;20041;-55
2022/08/19 10:22:59;;;;;;;5.78;3.63;;;;;;;27.35;44.08;94674.59;5039685;28;20103;-52
2022/08/19 10:25:26;;;;;;;6.45;4.18;;;;;;;27.33;44.60;94682.63;5030004;28;20807;-56
2022/08/19 10:27:52;;;;;;;6.22;3.97;;;;;;;27.07;44.80;94650.00;5029533;28;20024;-58
2022/08/19 10:30:17;;;;;;;5.03;3.80;;;;;;;26.70;44.32;94594.28;5056008;28;20033;-55
2022/08/19 10:32:44;;;;;;;5.85;3.80;;;;;;;26.73;44.44;94587.72;5050653;28;20041;-56
2022/08/19 10:35:10;;;;;;;5.00;3.90;;;;;;;26.81;44.75;94606.34;5059736;28;20040;-56
2022/08/19 10:37:36;;;;;;;5.40;3.67;;;;;;;27.16;45.35;94668.69;5031973;28;20589;-56
2022/08/19 10:40:04;;;;;;;6.25;3.50;;;;;;;26.89;45.48;94648.28;5053315;28;20108;-55
2022/08/19 10:42:31;;;;;;;5.35;4.07;;;;;;;27.25;44.88;94665.44;5043034;28;20115;-55
2022/08/19 10:44:56;;;;;;;5.25;4.43;;;;;;;26.86;46.28;94624.66;5052246;28;20507;-56
2022/08/19 10:47:22;;;;;;;6.57;3.92;;;;;;;27.02;45.86;94637.16;5054652;28;20065;-58
2022/08/19 10:52:33;;;;;;;5.63;4.15;;;;;;;27.18;45.70;94659.91;5050373;28;20095;-57
2022/08/19 10:57:49;;;;;;;5.20;3.72;;;;;;;26.73;45.48;94588.44;5056029;28;20590;-55
2022/08/19 11:00:15;;;;;;;6.70;4.18;;;;;;;27.08;45.62;94647.97;5053643;28;20108;-56
2022/08/19 11:02:41;;;;;;;4.50;3.80;;;;;;;27.20;45.23;94660.81;5054683;28;20103;-57
2022/08/19 11:05:09;;;;;;;5.35;4.50;;;;;;;26.99;45.77;94630.03;5052857;28;20033;-57
2022/08/19 11:07:35;;;;;;;5.43;3.75;;;;;;;27.18;45.50;94659.91;5039559;28;20094;-55
2022/08/19 11:10:02;;;;;;;4.82;3.97;;;;;;;26.19;46.62;94540.63;5054337;28;20759;-57
2022/08/19 11:12:28;;;;;;;4.43;3.83;;;;;;;26.45;46.20;94571.31;5050912;28;20043;-51
2022/08/19 11:14:54;;;;;;;5.65;3.92;;;;;;;27.04;46.19;94650.31;5044678;28;20037;-53
2022/08/19 11:17:19;;;;;;;6.15;4.05;;;;;;;26.99;45.92;94638.25;5049754;28;20041;-55
2022/08/19 11:19:47;;;;;;;4.85;4.07;;;;;;;26.42;46.06;94564.16;5047532;28;20884;-53
2022/08/19 11:22:12;;;;;;;5.10;3.80;;;;;;;26.76;46.52;94620.94;5050931;28;20045;-55
2022/08/19 11:24:38;;;;;;;4.82;4.18;;;;;;;26.55;45.88;94591.44;5063788;28;20051;-54
2022/08/19 11:27:11;;;;;;;5.10;4.05;;;;;;;26.56;46.28;94595.63;5059336;28;20040;-53
2022/08/19 11:29:40;;;;;;;5.40;3.95;;;;;;;26.86;46.68;94652.06;5044807;28;20051;-55
2022/08/19 11:32:07;;;;;;;4.25;3.53;;;;;;;26.83;46.30;94664.09;5053889;28;20036;-54
2022/08/19 11:34:32;;;;;;;5.43;3.95;;;;;;;26.43;46.69;94582.06;5063119;28;20942;-54
2022/08/19 11:36:59;;;;;;;4.15;3.75;;;;;;;26.26;46.85;94546.16;5060036;28;20105;-54
2022/08/19 11:39:27;;;;;;;4.30;3.80;;;;;;;26.72;46.94;94630.06;5058486;28;20101;-54
2022/08/19 11:41:52;;;;;;;5.13;4.15;;;;;;;26.09;46.38;94532.19;5048174;28;20041;-54
2022/08/19 11:44:18;;;;;;;6.07;3.97;;;;;;;26.64;46.92;94615.59;5050428;28;20051;-55
2022/08/19 11:46:47;;;;;;;4.78;4.10;;;;;;;26.11;46.64;94535.13;5030702;28;21644;-52
2022/08/19 11:49:13;;;;;;;4.95;3.85;;;;;;;26.45;46.90;94582.25;5047284;28;20041;-55
2022/08/19 11:51:39;;;;;;;5.38;4.20;;;;;;;26.62;47.37;94631.81;5047097;28;20028;-56
2022/08/19 11:54:05;;;;;;;6.18;4.63;;;;;;;26.66;47.26;94613.03;5046894;28;20194;-54